Time;durP1;ratioP1;P1;durP2;ratioP2;P2;SDS_P1;SDS_P2;PMS_P1;PMS_P2;Temp;Humidity;BMP_temperature;BMP_pressure;BME280_temperature;BME280_humidity;BME280_pressure;Samples;Min_cycle;Max_cycle;Signal;HPM_P1;HPM_P2
2024/04/07 00:00:36;;;;;;;7.87;4.97;;;;;;;11.63;100.00;100415.40;1658162;85;21078;-71
2024/04/07 00:03:05;;;;;;;6.25;4.90;;;;;;;11.64;100.00;100419.84;1657971;85;21087;-72
2024/04/07 00:05:34;;;;;;;6.90;4.50;;;;;;;11.62;100.00;100425.53;1658058;86;21070;-71
2024/04/07 00:08:05;;;;;;;8.05;5.50;;;;;;;11.63;100.00;100422.26;1658187;86;21055;-70
2024/04/07 00:10:36;;;;;;;8.50;5.30;;;;;;;11.61;100.00;100421.62;1657904;85;21076;-71
2024/04/07 00:13:05;;;;;;;7.20;4.90;;;;;;;11.60;100.00;100429.00;1657976;86;21463;-72
2024/04/07 00:15:33;;;;;;;8.68;5.17;;;;;;;11.59;100.00;100435.55;1658181;86;21067;-71
2024/04/07 00:18:02;;;;;;;9.40;5.22;;;;;;;11.59;100.00;100436.91;1658126;85;21051;-72
2024/04/07 00:20:31;;;;;;;7.55;4.87;;;;;;;11.56;100.00;100437.32;1658135;85;21047;-71
2024/04/07 00:22:59;;;;;;;9.53;5.20;;;;;;;11.53;100.00;100435.52;1658178;86;21145;-72
2024/04/07 00:25:27;;;;;;;7.40;5.37;;;;;;;11.49;100.00;100444.67;1658075;85;21083;-72
2024/04/07 00:27:55;;;;;;;9.55;5.30;;;;;;;11.48;100.00;100437.48;1657975;85;21494;-70
2024/04/07 00:30:25;;;;;;;8.40;4.75;;;;;;;11.47;100.00;100453.63;1658326;86;21045;-71
2024/04/07 00:32:53;;;;;;;8.75;4.90;;;;;;;11.46;100.00;100452.46;1658098;85;21035;-71
2024/04/07 00:35:23;;;;;;;9.15;4.97;;;;;;;11.44;100.00;100460.89;1658222;86;21038;-70
2024/04/07 00:37:52;;;;;;;7.67;4.33;;;;;;;11.44;100.00;100465.86;1657990;85;21055;-73
2024/04/07 00:40:20;;;;;;;6.20;4.10;;;;;;;11.44;100.00;100474.61;1658156;85;21138;-71
2024/04/07 00:42:49;;;;;;;6.78;4.60;;;;;;;11.42;100.00;100474.81;1657647;86;21056;-69
2024/04/07 00:45:18;;;;;;;6.92;4.62;;;;;;;11.39;100.00;100489.45;1657773;86;21051;-72
2024/04/07 00:47:47;;;;;;;7.62;5.05;;;;;;;11.39;99.93;100497.69;1657934;86;21059;-71
2024/04/07 00:50:15;;;;;;;7.17;4.87;;;;;;;11.36;99.71;100497.56;1657937;85;21185;-72
2024/04/07 00:52:44;;;;;;;8.98;4.85;;;;;;;11.31;99.52;100502.81;1658024;86;21167;-71
2024/04/07 00:55:12;;;;;;;9.73;5.25;;;;;;;11.28;99.65;100503.73;1657452;86;21102;-72
2024/04/07 00:57:41;;;;;;;8.40;4.70;;;;;;;11.25;99.56;100502.23;1686927;84;21304;-73
2024/04/07 01:00:11;;;;;;;8.68;4.87;;;;;;;11.22;99.53;100504.53;1635394;87;21110;-72
2024/04/07 01:02:39;;;;;;;8.65;4.40;;;;;;;11.21;99.61;100495.98;1687232;85;21007;-71
2024/04/07 01:05:07;;;;;;;8.83;5.00;;;;;;;11.18;99.74;100509.56;1655872;85;21094;-71
2024/04/07 01:07:36;;;;;;;8.75;4.60;;;;;;;11.20;99.75;100514.85;1655782;87;21074;-72
2024/04/07 01:10:06;;;;;;;7.53;4.55;;;;;;;11.20;99.66;100503.88;1687171;85;21090;-72
2024/04/07 01:12:34;;;;;;;7.95;4.47;;;;;;;11.20;99.69;100512.95;1687057;85;21070;-71
2024/04/07 01:15:04;;;;;;;6.50;4.40;;;;;;;11.22;99.51;100518.24;1686934;85;21015;-71
2024/04/07 01:17:33;;;;;;;8.30;4.50;;;;;;;11.23;99.42;100524.05;1687176;85;21078;-73
2024/04/07 01:20:03;;;;;;;7.28;4.45;;;;;;;11.22;99.33;100529.21;1655795;87;21050;-71
2024/04/07 01:22:31;;;;;;;7.62;4.33;;;;;;;11.23;99.27;100525.42;1686956;84;21039;-71
2024/04/07 01:25:01;;;;;;;6.47;4.28;;;;;;;11.22;99.18;100523.20;1655948;87;21069;-70
2024/04/07 01:27:30;;;;;;;6.42;4.05;;;;;;;11.22;99.03;100528.69;1655709;85;21054;-71
2024/04/07 01:29:59;;;;;;;7.37;3.77;;;;;;;11.24;98.96;100538.09;1655994;86;21098;-69
2024/04/07 01:32:28;;;;;;;5.60;3.40;;;;;;;11.23;98.80;100535.87;1687181;85;21047;-71
2024/04/07 01:34:57;;;;;;;4.42;2.95;;;;;;;11.21;98.52;100542.08;1687011;84;21185;-72
2024/04/07 01:37:26;;;;;;;4.90;2.62;;;;;;;11.20;98.27;100538.16;1655904;86;21051;-70
2024/04/07 01:39:54;;;;;;;5.45;2.87;;;;;;;11.15;98.08;100545.62;1687409;84;21090;-72
2024/04/07 01:42:22;;;;;;;7.42;2.80;;;;;;;11.15;97.93;100544.77;1655784;86;21114;-72
2024/04/07 01:44:51;;;;;;;5.75;2.70;;;;;;;11.15;97.94;100546.98;1655715;85;21079;-72
2024/04/07 01:47:19;;;;;;;4.45;2.50;;;;;;;11.15;97.76;100545.62;1687214;85;21042;-70
2024/04/07 01:49:49;;;;;;;4.20;2.40;;;;;;;11.14;97.63;100540.33;1655951;85;21055;-73
2024/04/07 01:52:18;;;;;;;3.47;2.37;;;;;;;11.16;97.59;100538.23;1655952;86;21079;-70
2024/04/07 01:54:46;;;;;;;5.95;2.47;;;;;;;11.18;97.43;100541.63;1687017;84;21209;-72
2024/04/07 01:57:14;;;;;;;5.42;2.55;;;;;;;11.19;96.99;100544.70;1679806;85;21074;-69
2024/04/07 01:59:44;;;;;;;5.08;2.30;;;;;;;11.19;96.65;100543.33;1661440;85;21043;-70
2024/04/07 02:02:13;;;;;;;4.45;2.15;;;;;;;11.20;96.46;100542.28;1701835;84;21027;-70
2024/04/07 02:04:43;;;;;;;2.75;1.87;;;;;;;11.19;96.30;100543.33;1701557;83;21501;-73
2024/04/07 02:07:12;;;;;;;4.28;2.40;;;;;;;11.19;96.06;100538.69;1667573;85;21036;-71
2024/04/07 02:09:40;;;;;;;3.72;2.40;;;;;;;11.18;95.83;100545.22;1701721;84;21043;-72
2024/04/07 02:12:08;;;;;;;3.52;2.15;;;;;;;11.17;95.67;100544.05;1701518;84;21035;-72
2024/04/07 02:14:37;;;;;;;3.95;2.47;;;;;;;11.17;95.57;100551.75;1701653;84;21063;-72
2024/04/07 02:17:06;;;;;;;3.45;2.10;;;;;;;11.16;95.52;100550.05;1701881;84;21039;-71
2024/04/07 02:19:35;;;;;;;7.12;2.33;;;;;;;11.14;95.42;100558.16;1701688;83;21150;-71
2024/04/07 02:22:05;;;;;;;4.28;2.27;;;;;;;11.10;95.35;100560.45;1701748;84;21012;-72
2024/04/07 02:24:33;;;;;;;6.20;2.15;;;;;;;11.08;95.25;100571.61;1701717;84;21054;-72
2024/04/07 02:27:04;;;;;;;3.10;2.37;;;;;;;11.04;95.23;100568.05;1701710;83;21047;-71
2024/04/07 02:29:35;;;;;;;5.65;2.40;;;;;;;11.00;95.25;100570.86;1701711;84;21059;-71
2024/04/07 02:32:04;;;;;;;3.92;2.55;;;;;;;10.96;95.30;100574.52;1701623;84;21489;-71
2024/04/07 02:34:32;;;;;;;4.17;2.50;;;;;;;10.94;95.35;100571.65;1701502;84;21067;-72
2024/04/07 02:37:01;;;;;;;4.72;2.50;;;;;;;10.92;95.33;100582.81;1701655;84;21467;-72
2024/04/07 02:39:30;;;;;;;3.83;2.50;;;;;;;10.91;95.31;100578.89;1701699;84;21079;-72
2024/04/07 02:41:58;;;;;;;3.92;2.30;;;;;;;10.87;95.36;100577.06;1701509;83;21040;-71
2024/04/07 02:50:03;;;;;;;5.20;2.42;;;;;;;10.83;95.61;100577.66;1701806;84;21071;-72
2024/04/07 02:52:32;;;;;;;4.47;2.58;;;;;;;10.82;95.70;100575.44;1701844;84;21067;-72
2024/04/07 02:55:01;;;;;;;3.85;2.33;;;;;;;10.79;95.74;100582.67;1701575;84;21079;-71
2024/04/07 02:57:29;;;;;;;4.17;2.33;;;;;;;10.79;95.75;100588.16;1655265;84;21102;-71
2024/04/07 02:59:58;;;;;;;5.15;2.60;;;;;;;10.76;95.77;100584.44;1653700;87;21067;-72
2024/04/07 03:02:27;;;;;;;3.77;2.50;;;;;;;10.75;95.76;100584.95;1653818;86;21015;-72
2024/04/07 03:04:55;;;;;;;4.30;2.37;;;;;;;10.73;95.71;100576.60;1653898;86;21131;-72
2024/04/07 03:07:24;;;;;;;3.47;2.45;;;;;;;10.71;95.59;100594.61;1653617;87;21131;-70
2024/04/07 03:09:55;;;;;;;3.80;2.50;;;;;;;10.66;95.44;100583.38;1653616;85;21281;-73
2024/04/07 03:12:24;;;;;;;5.03;2.80;;;;;;;10.64;95.60;100588.73;1642467;86;21111;-73
2024/04/07 03:14:53;;;;;;;5.30;2.87;;;;;;;10.60;95.54;100593.74;1654071;85;21093;-70
2024/04/07 03:17:22;;;;;;;5.05;2.65;;;;;;;10.57;95.58;100598.77;1653826;87;21032;-71
2024/04/07 03:19:50;;;;;;;8.75;3.10;;;;;;;10.53;95.56;100601.04;1653907;85;21178;-71
2024/04/07 03:22:19;;;;;;;7.67;3.27;;;;;;;10.47;95.41;100605.40;1653895;85;21031;-72
2024/04/07 03:24:48;;;;;;;6.05;2.40;;;;;;;10.38;95.46;100613.36;1653703;86;21086;-72
2024/04/07 03:27:17;;;;;;;5.70;2.83;;;;;;;10.37;95.62;100612.19;1653823;86;21298;-73
2024/04/07 03:29:46;;;;;;;6.90;3.20;;;;;;;10.36;95.70;100610.48;1653859;87;21079;-72
2024/04/07 03:32:15;;;;;;;5.45;2.80;;;;;;;10.35;95.68;100607.42;1653689;86;21051;-72
2024/04/07 03:34:43;;;;;;;5.83;2.90;;;;;;;10.32;95.66;100618.23;1653808;86;21452;-72
2024/04/07 03:37:13;;;;;;;6.60;3.35;;;;;;;10.27;95.60;100625.33;1653821;86;21031;-71
2024/04/07 03:39:42;;;;;;;6.03;3.42;;;;;;;10.25;95.66;100632.36;1653907;87;21048;-72
2024/04/07 03:42:10;;;;;;;9.15;3.80;;;;;;;10.23;95.76;100634.44;1653443;86;21471;-72
2024/04/07 03:44:39;;;;;;;6.45;3.67;;;;;;;10.23;95.97;100640.44;1653563;86;21661;-71
2024/04/07 03:47:10;;;;;;;5.90;3.80;;;;;;;10.18;96.20;100648.67;1653599;85;21043;-72
2024/04/07 03:49:38;;;;;;;8.00;3.85;;;;;;;10.20;96.64;100652.62;1653643;87;21495;-72
2024/04/07 03:52:07;;;;;;;7.22;3.98;;;;;;;10.20;96.88;100651.25;1653625;87;21012;-72
2024/04/07 03:54:35;;;;;;;6.22;3.77;;;;;;;10.22;97.00;100662.02;1653426;87;21079;-73
2024/04/07 03:57:04;;;;;;;7.53;3.42;;;;;;;10.19;97.11;100667.31;1683611;84;21226;-72
2024/04/07 03:59:32;;;;;;;5.40;3.52;;;;;;;10.19;97.25;100675.53;1698721;84;21471;-72
2024/04/07 04:02:02;;;;;;;6.33;3.62;;;;;;;10.18;97.39;100678.79;1698835;84;21079;-72
2024/04/07 04:04:31;;;;;;;6.62;4.45;;;;;;;10.20;97.61;100680.00;1698948;84;21035;-70
2024/04/07 04:07:00;;;;;;;6.08;4.30;;;;;;;10.22;97.63;100683.41;1699223;84;21560;-72
2024/04/07 04:09:29;;;;;;;5.42;3.95;;;;;;;10.23;97.82;100687.84;1698946;84;20995;-71
2024/04/07 04:11:58;;;;;;;6.67;4.22;;;;;;;10.24;97.81;100688.17;1698966;84;21094;-72
2024/04/07 04:14:27;;;;;;;6.35;4.37;;;;;;;10.24;97.95;100681.33;1698701;84;21527;-72
2024/04/07 04:16:55;;;;;;;10.18;4.20;;;;;;;10.29;98.00;100692.56;1698870;84;21075;-72
2024/04/07 04:19:24;;;;;;;4.90;3.72;;;;;;;10.31;97.93;100697.86;1698679;84;21874;-71
2024/04/07 04:21:52;;;;;;;6.67;3.92;;;;;;;10.33;97.94;100695.25;1699084;84;21498;-71
2024/04/07 04:24:23;;;;;;;6.10;3.90;;;;;;;10.34;97.96;100698.84;1699012;84;21016;-70
2024/04/07 04:26:51;;;;;;;6.40;3.85;;;;;;;10.34;98.00;100701.06;1699056;84;21055;-73
2024/04/07 04:29:21;;;;;;;8.25;4.05;;;;;;;10.37;98.05;100708.05;1698830;84;21463;-71
2024/04/07 04:31:52;;;;;;;6.53;3.62;;;;;;;10.39;98.06;100699.13;1699154;84;20992;-73
2024/04/07 04:34:21;;;;;;;7.62;3.72;;;;;;;10.41;98.04;100701.19;1699040;84;21032;-72
2024/04/07 04:36:51;;;;;;;6.50;3.87;;;;;;;10.41;98.06;100704.78;1698998;84;21051;-70
2024/04/07 04:39:19;;;;;;;10.40;7.78;;;;;;;10.43;98.06;100707.33;1698886;84;21158;-72
2024/04/07 04:41:48;;;;;;;5.50;4.10;;;;;;;10.45;98.12;100712.95;1699193;84;21026;-72
2024/04/07 04:44:17;;;;;;;4.90;2.85;;;;;;;10.47;98.04;100714.13;1699176;84;21043;-72
2024/04/07 04:46:47;;;;;;;7.08;3.20;;;;;;;10.51;97.96;100725.56;1698967;84;21036;-71
2024/04/07 04:49:16;;;;;;;5.72;4.92;;;;;;;10.52;97.84;100717.67;1698911;84;21033;-71
2024/04/07 04:51:46;;;;;;;5.20;3.40;;;;;;;10.56;97.90;100730.80;1698952;84;21082;-72
2024/04/07 04:54:14;;;;;;;6.62;4.08;;;;;;;10.67;98.12;100738.54;1698950;84;21451;-73
2024/04/07 04:56:44;;;;;;;9.35;3.87;;;;;;;10.77;97.93;100750.58;1699840;84;21118;-73
2024/04/07 04:59:12;;;;;;;5.08;3.45;;;;;;;10.84;97.59;100746.56;1701284;84;21028;-71
2024/04/07 05:01:41;;;;;;;6.72;3.85;;;;;;;10.89;97.22;100763.28;1701247;84;21051;-72
2024/04/07 05:04:09;;;;;;;5.72;4.40;;;;;;;10.91;96.91;100760.68;1701256;84;21510;-73
2024/04/07 05:06:38;;;;;;;5.15;3.00;;;;;;;10.93;96.62;100761.34;1701138;84;21046;-72
2024/04/07 05:09:09;;;;;;;5.83;3.45;;;;;;;10.94;96.41;100763.04;1701415;84;21016;-72
2024/04/07 05:11:37;;;;;;;4.33;3.00;;;;;;;10.94;96.25;100764.93;1701141;84;21483;-72
2024/04/07 05:14:07;;;;;;;3.90;2.80;;;;;;;10.94;96.11;100758.92;1701239;84;21051;-72
2024/04/07 05:16:36;;;;;;;6.05;2.83;;;;;;;10.95;95.91;100770.74;1701223;84;21023;-72
2024/04/07 05:19:05;;;;;;;6.67;2.72;;;;;;;10.96;95.90;100769.70;1701344;84;21015;-73
2024/04/07 05:21:34;;;;;;;4.83;2.52;;;;;;;11.00;96.03;100770.50;1701379;84;21039;-73
2024/04/07 05:24:04;;;;;;;5.45;2.90;;;;;;;11.06;95.93;100782.11;1701351;84;21078;-71
2024/04/07 05:26:33;;;;;;;5.20;2.70;;;;;;;11.08;95.78;100781.39;1701173;84;21234;-73
2024/04/07 05:29:03;;;;;;;4.83;2.80;;;;;;;11.14;95.83;100785.26;1681990;84;21051;-71
2024/04/07 05:31:32;;;;;;;5.12;2.83;;;;;;;11.22;95.83;100788.41;1701215;84;21102;-73
2024/04/07 05:34:00;;;;;;;4.35;2.90;;;;;;;11.29;95.81;100783.33;1701252;84;21122;-72
2024/04/07 05:36:29;;;;;;;4.30;2.83;;;;;;;11.37;95.63;100791.45;1701517;84;21039;-72
2024/04/07 05:38:59;;;;;;;7.42;3.08;;;;;;;11.45;95.31;100793.22;1701505;84;21033;-72
2024/04/07 05:41:27;;;;;;;4.95;2.62;;;;;;;11.50;94.92;100793.48;1682022;84;21270;-72
2024/04/07 05:43:56;;;;;;;4.67;2.87;;;;;;;11.53;94.75;100795.84;1701468;84;21063;-73
2024/04/07 05:46:26;;;;;;;4.55;2.90;;;;;;;11.58;94.34;100793.37;1701433;84;21066;-71
2024/04/07 05:48:55;;;;;;;6.03;3.00;;;;;;;11.62;94.03;100792.45;1701646;84;21051;-73
2024/04/07 05:51:24;;;;;;;6.10;3.12;;;;;;;11.69;93.93;100796.12;1681896;84;21044;-72
2024/04/07 05:53:52;;;;;;;7.22;3.00;;;;;;;11.74;93.40;100795.05;1701239;84;21087;-72
2024/04/07 05:56:21;;;;;;;7.03;2.90;;;;;;;11.72;92.83;100797.13;1701176;84;21090;-72
2024/04/07 05:58:49;;;;;;;6.03;3.15;;;;;;;11.71;92.71;100803.14;1701229;84;21144;-74
2024/04/07 06:01:18;;;;;;;4.42;2.87;;;;;;;11.71;92.60;100806.41;1701344;84;21039;-72
2024/04/07 06:03:47;;;;;;;4.78;2.72;;;;;;;11.71;92.35;100811.38;1701472;84;21063;-72
2024/04/07 06:06:15;;;;;;;5.67;2.85;;;;;;;11.68;92.13;100817.75;1701240;84;21031;-73
2024/04/07 06:08:44;;;;;;;5.80;2.95;;;;;;;11.65;92.09;100821.73;1681741;84;21533;-72
2024/04/07 06:11:13;;;;;;;4.75;2.85;;;;;;;11.64;92.29;100822.78;1701308;84;21484;-72
2024/04/07 06:13:42;;;;;;;6.33;3.30;;;;;;;11.69;92.59;100825.79;1682047;84;21067;-72
2024/04/07 06:16:11;;;;;;;4.53;3.05;;;;;;;11.74;92.57;100821.97;1681816;84;21051;-72
2024/04/07 06:18:39;;;;;;;4.87;3.10;;;;;;;11.80;92.36;100819.52;1701466;84;21059;-73
2024/04/07 06:21:10;;;;;;;6.83;3.50;;;;;;;11.78;91.90;100824.36;1701445;84;21003;-71
2024/04/07 06:23:40;;;;;;;5.28;3.40;;;;;;;11.74;91.79;100825.23;1701410;84;21087;-72
2024/04/07 06:26:09;;;;;;;6.08;3.47;;;;;;;11.71;91.66;100822.36;1650970;86;21190;-71
2024/04/07 06:28:38;;;;;;;3.30;2.80;;;;;;;11.70;91.76;100833.50;1669753;86;21103;-73
2024/04/07 06:31:06;;;;;;;6.65;3.52;;;;;;;11.74;91.83;100833.47;1657982;86;21103;-73
2024/04/07 06:33:35;;;;;;;7.35;3.22;;;;;;;11.77;91.70;100825.38;1657825;86;21055;-72
2024/04/07 06:36:05;;;;;;;7.83;3.10;;;;;;;11.77;91.57;100833.61;1657937;86;21078;-70
2024/04/07 06:38:34;;;;;;;5.95;3.25;;;;;;;11.78;91.57;100844.95;1657949;86;21051;-73
2024/04/07 06:41:04;;;;;;;5.70;3.10;;;;;;;11.81;91.44;100852.80;1646664;86;21056;-72
2024/04/07 06:43:35;;;;;;;5.17;3.40;;;;;;;11.79;91.29;100855.73;1657950;86;21482;-72
2024/04/07 06:46:04;;;;;;;5.47;3.20;;;;;;;11.79;91.41;100852.14;1657785;85;21557;-73
2024/04/07 06:48:32;;;;;;;4.85;3.40;;;;;;;11.79;91.36;100846.13;1657890;85;21131;-73
2024/04/07 06:51:01;;;;;;;7.40;3.72;;;;;;;11.77;91.28;100861.91;1658033;86;21067;-73
2024/04/07 06:53:30;;;;;;;6.83;3.60;;;;;;;11.75;91.46;100864.84;1646754;86;21055;-72
2024/04/07 06:55:59;;;;;;;4.60;3.10;;;;;;;11.77;91.64;100876.16;1657919;86;21459;-71
2024/04/07 06:58:30;;;;;;;7.78;3.30;;;;;;;11.80;91.75;100879.92;1656301;85;21127;-70
2024/04/07 07:01:00;;;;;;;7.30;3.20;;;;;;;11.83;91.80;100878.16;1655807;85;21561;-72
2024/04/07 07:03:28;;;;;;;4.62;3.55;;;;;;;11.88;91.94;100882.55;1687184;84;21038;-73
2024/04/07 07:05:57;;;;;;;8.85;4.12;;;;;;;11.93;91.90;100882.30;1687241;84;21050;-72
2024/04/07 07:08:26;;;;;;;7.60;3.98;;;;;;;11.99;91.87;100884.78;1687252;85;20998;-72
2024/04/07 07:11:01;;;;;;;7.75;4.03;;;;;;;12.06;91.82;100881.58;1655948;85;21050;-73
2024/04/07 07:13:31;;;;;;;5.95;4.00;;;;;;;12.14;91.69;100881.97;1687138;84;21028;-72
2024/04/07 07:16:01;;;;;;;6.33;3.50;;;;;;;12.19;91.42;100891.33;1655789;86;21498;-72
2024/04/07 07:18:30;;;;;;;6.22;3.50;;;;;;;12.25;91.29;100887.80;1687151;84;21026;-72
2024/04/07 07:20:58;;;;;;;6.67;3.60;;;;;;;12.31;90.99;100887.00;1687093;84;21174;-73
2024/04/07 07:23:26;;;;;;;5.08;4.00;;;;;;;12.39;90.61;100897.04;1687249;84;21031;-72
2024/04/07 07:25:55;;;;;;;8.43;4.10;;;;;;;12.43;90.29;100895.59;1655670;85;21092;-72
2024/04/07 07:28:24;;;;;;;7.28;4.00;;;;;;;12.50;90.06;100894.28;1665786;84;21547;-73
2024/04/07 07:30:54;;;;;;;6.85;4.00;;;;;;;12.54;89.61;100891.46;1665680;85;21543;-73
2024/04/07 07:33:22;;;;;;;8.13;4.65;;;;;;;12.59;89.32;100887.06;1686979;84;21495;-73
2024/04/07 07:35:52;;;;;;;5.12;3.30;;;;;;;12.64;89.12;100887.84;1655787;87;21086;-72
2024/04/07 07:38:22;;;;;;;5.90;3.55;;;;;;;12.70;88.76;100882.39;1687195;85;21058;-74
2024/04/07 07:40:52;;;;;;;5.85;3.10;;;;;;;12.78;88.31;100889.64;1687213;85;21023;-73
2024/04/07 07:43:21;;;;;;;5.25;2.85;;;;;;;12.84;87.74;100890.22;1655769;87;21471;-73
2024/04/07 07:45:50;;;;;;;4.75;2.95;;;;;;;12.91;86.84;100898.52;1687059;85;21170;-73
2024/04/07 07:48:19;;;;;;;4.28;2.95;;;;;;;12.95;85.88;100897.91;1655778;87;21054;-73
2024/04/07 07:50:47;;;;;;;4.30;2.70;;;;;;;13.07;85.34;100898.23;1654473;86;21133;-79
2024/04/07 07:53:16;;;;;;;4.65;3.10;;;;;;;13.40;85.26;100890.72;1682380;85;21107;-74
2024/04/07 07:55:46;;;;;;;8.40;3.30;;;;;;;13.92;85.20;100899.22;1681926;84;21043;-72
2024/04/07 07:58:16;;;;;;;3.08;2.45;;;;;;;14.55;83.38;100905.85;1665637;85;21146;-74
2024/04/07 08:00:45;;;;;;;6.40;3.12;;;;;;;15.13;80.95;100904.67;1697417;84;21090;-74
2024/04/07 08:03:14;;;;;;;6.60;2.95;;;;;;;15.71;78.05;100902.00;1653609;84;21050;-74
2024/04/07 08:05:42;;;;;;;7.05;3.30;;;;;;;16.25;76.14;100898.72;1683180;83;21043;-75
2024/04/07 08:08:11;;;;;;;5.58;3.25;;;;;;;16.75;72.87;100906.59;1706858;84;21030;-77
2024/04/07 08:10:39;;;;;;;5.42;3.40;;;;;;;17.13;70.93;100901.48;1715623;84;21120;-75
2024/04/07 08:13:08;;;;;;;6.35;3.30;;;;;;;17.51;69.08;100899.03;1673505;85;21114;-74
2024/04/07 08:15:38;;;;;;;7.60;3.17;;;;;;;17.82;67.78;100893.38;1690922;84;21415;-75
2024/04/07 08:18:06;;;;;;;4.40;2.95;;;;;;;18.11;66.30;100908.34;1710678;83;21058;-76
2024/04/07 08:20:36;;;;;;;5.85;3.50;;;;;;;18.34;64.49;100899.28;1696770;83;21538;-76
2024/04/07 08:23:05;;;;;;;5.40;2.70;;;;;;;18.62;63.97;100900.05;1680770;85;21059;-76
2024/04/07 08:25:34;;;;;;;6.40;2.90;;;;;;;18.90;61.75;100904.94;1681035;85;21055;-77
2024/04/07 08:28:06;;;;;;;5.75;2.62;;;;;;;19.06;60.78;100905.61;1703345;83;21090;-75
2024/04/07 08:30:34;;;;;;;5.75;2.58;;;;;;;19.29;59.77;100906.98;1680780;84;21031;-69
2024/04/07 08:33:04;;;;;;;10.08;2.90;;;;;;;19.44;58.27;100902.86;1715434;83;21094;-70
2024/04/07 08:35:33;;;;;;;8.03;2.60;;;;;;;19.61;57.09;100907.48;1715598;84;21051;-71
2024/04/07 08:38:02;;;;;;;5.35;2.52;;;;;;;19.81;56.14;100915.41;1706422;83;21106;-70
2024/04/07 08:40:30;;;;;;;4.78;2.12;;;;;;;20.03;54.44;100908.63;1660935;85;21059;-68
2024/04/07 08:42:59;;;;;;;7.72;2.15;;;;;;;20.21;53.40;100909.00;1662240;85;21094;-68
2024/04/07 08:45:28;;;;;;;6.30;2.27;;;;;;;20.26;51.20;100899.36;1683155;84;21598;-68
2024/04/07 08:47:57;;;;;;;5.22;2.17;;;;;;;20.37;51.08;100899.00;1683139;84;21058;-69
2024/04/07 08:50:26;;;;;;;5.15;2.58;;;;;;;20.56;51.14;100899.95;1682902;85;21498;-69
2024/04/07 08:52:57;;;;;;;6.65;2.30;;;;;;;20.75;49.90;100908.06;1683385;84;21090;-68
2024/04/07 08:55:26;;;;;;;4.75;2.50;;;;;;;20.72;48.69;100894.64;1683099;85;21058;-67
2024/04/07 08:57:55;;;;;;;7.45;2.22;;;;;;;20.58;49.84;100893.58;1686054;83;21110;-67
2024/04/07 09:00:24;;;;;;;6.05;2.20;;;;;;;20.41;49.14;100896.05;1674757;84;21587;-68
2024/04/07 09:02:52;;;;;;;6.22;2.12;;;;;;;20.17;49.48;100900.31;1714326;82;21015;-69
2024/04/07 09:05:21;;;;;;;5.37;1.77;;;;;;;20.03;49.31;100893.88;1674792;85;21145;-72
2024/04/07 09:07:49;;;;;;;8.65;2.30;;;;;;;19.96;48.84;100895.41;1710043;82;21106;-70
2024/04/07 09:10:18;;;;;;;5.30;2.05;;;;;;;19.88;49.61;100898.59;1710441;83;21133;-72
2024/04/07 09:12:47;;;;;;;3.92;2.17;;;;;;;19.78;49.74;100905.33;1692249;84;21539;-71
2024/04/07 09:15:15;;;;;;;6.10;2.30;;;;;;;19.65;50.33;100909.77;1674652;84;21470;-69
2024/04/07 09:17:44;;;;;;;6.40;2.70;;;;;;;19.45;50.15;100910.11;1693871;84;21062;-70
2024/04/07 09:20:20;;;;;;;7.53;2.65;;;;;;;19.30;50.74;100913.39;1679516;83;21058;-68
2024/04/07 09:22:49;;;;;;;10.80;3.25;;;;;;;19.20;50.95;100919.55;1693701;84;21114;-68
2024/04/07 09:25:18;;;;;;;6.62;2.60;;;;;;;19.12;51.00;100917.69;1667094;85;21107;-68
2024/04/07 09:27:48;;;;;;;7.17;2.42;;;;;;;19.05;51.24;100917.80;1695451;84;21548;-70
2024/04/07 09:30:17;;;;;;;4.22;2.20;;;;;;;18.99;51.12;100919.62;1696297;84;21057;-68
2024/04/07 09:32:48;;;;;;;4.85;2.33;;;;;;;18.95;50.83;100918.41;1629878;84;21090;-69
2024/04/07 09:35:17;;;;;;;4.80;2.15;;;;;;;18.84;50.92;100910.88;1674148;84;21493;-69
2024/04/07 09:37:45;;;;;;;6.05;2.33;;;;;;;18.78;51.29;100919.31;1696752;83;21058;-69
2024/04/07 09:40:15;;;;;;;5.00;2.40;;;;;;;18.74;51.67;100912.55;1692996;84;21057;-69
2024/04/07 09:42:45;;;;;;;4.92;2.45;;;;;;;18.69;51.60;100916.89;1692217;84;21482;-68
2024/04/07 09:45:13;;;;;;;5.75;2.30;;;;;;;18.57;51.56;100922.08;1692702;85;21054;-66
2024/04/07 09:47:44;;;;;;;3.25;2.20;;;;;;;18.43;51.88;100923.38;1692813;84;21073;-67
2024/04/07 09:50:26;;;;;;;5.85;2.15;;;;;;;18.35;52.10;100927.33;1693239;84;21062;-65
2024/04/07 09:53:00;;;;;;;4.72;2.20;;;;;;;18.26;52.00;100928.20;1665387;84;21059;-65
2024/04/07 09:55:29;;;;;;;5.17;2.67;;;;;;;18.15;52.32;100926.73;1690653;84;21474;-66
2024/04/07 09:57:58;;;;;;;4.67;2.60;;;;;;;18.11;53.12;100927.75;1688388;84;21086;-66
2024/04/07 10:00:27;;;;;;;5.08;2.33;;;;;;;18.13;53.57;100926.13;1674098;84;21163;-67
2024/04/07 10:02:58;;;;;;;6.05;2.62;;;;;;;18.18;53.75;100935.44;1654478;84;21066;-66
2024/04/07 10:05:27;;;;;;;4.92;2.85;;;;;;;18.19;54.01;100934.89;1680150;84;21470;-66
2024/04/07 10:07:55;;;;;;;4.65;3.00;;;;;;;18.11;53.97;100940.23;1679129;84;21066;-66
2024/04/07 10:10:25;;;;;;;6.90;3.87;;;;;;;18.00;54.52;100943.25;1680782;83;21561;-66
2024/04/07 10:12:54;;;;;;;5.35;2.30;;;;;;;17.95;54.92;100940.88;1678602;84;22141;-66
2024/04/07 10:15:23;;;;;;;4.87;2.55;;;;;;;17.92;55.08;100937.18;1680552;84;21039;-67
2024/04/07 10:17:52;;;;;;;5.47;2.42;;;;;;;17.88;55.01;100935.41;1630263;84;21142;-68
2024/04/07 10:20:26;;;;;;;5.03;2.40;;;;;;;17.85;55.42;100939.19;1674985;85;21079;-67
2024/04/07 10:22:55;;;;;;;5.80;2.42;;;;;;;17.82;55.83;100939.66;1680873;84;21506;-66
2024/04/07 10:25:24;;;;;;;5.35;2.47;;;;;;;17.79;55.52;100940.12;1673713;85;21098;-67
2024/04/07 10:27:53;;;;;;;6.78;2.42;;;;;;;17.74;55.67;100951.91;1641715;86;21118;-66
2024/04/07 10:30:22;;;;;;;6.42;2.00;;;;;;;17.73;56.09;100946.91;1618488;85;21155;-67
2024/04/07 10:32:51;;;;;;;4.65;2.10;;;;;;;17.73;55.86;100948.83;1669858;84;21114;-68
2024/04/07 10:35:22;;;;;;;5.90;2.37;;;;;;;17.71;55.97;100945.44;1670037;86;21058;-69
2024/04/07 10:37:52;;;;;;;5.80;2.15;;;;;;;17.65;55.87;100953.26;1669933;84;21575;-67
2024/04/07 10:40:20;;;;;;;5.35;2.27;;;;;;;17.63;56.00;100949.33;1591842;87;21086;-69
2024/04/07 10:42:49;;;;;;;4.60;2.50;;;;;;;17.63;55.50;100951.26;1670269;84;21133;-68
2024/04/07 10:45:20;;;;;;;6.83;2.00;;;;;;;17.65;55.54;100949.10;1669683;86;21150;-69
2024/04/07 10:47:49;;;;;;;3.75;1.90;;;;;;;17.66;55.07;100948.03;1669111;84;21113;-69
2024/04/07 10:50:19;;;;;;;4.03;1.85;;;;;;;17.68;55.08;100943.98;1669312;86;21097;-66
2024/04/07 10:52:51;;;;;;;3.92;1.80;;;;;;;17.70;54.92;100936.81;1640294;85;21660;-69
2024/04/07 10:55:20;;;;;;;4.55;2.15;;;;;;;17.77;54.38;100933.97;1668227;86;21098;-67
2024/04/07 10:57:50;;;;;;;4.80;1.55;;;;;;;17.85;52.88;100937.27;1669091;82;22155;-68
2024/04/07 11:00:19;;;;;;;6.45;2.10;;;;;;;17.91;53.24;100939.11;1627554;87;21521;-66
2024/04/07 11:02:49;;;;;;;3.67;1.70;;;;;;;18.00;53.05;100934.09;1648176;85;21515;-66
2024/04/07 11:05:17;;;;;;;4.75;2.20;;;;;;;18.04;52.82;100932.54;1651191;85;21049;-68
2024/04/07 11:07:46;;;;;;;4.53;1.92;;;;;;;18.04;53.89;100935.31;1653039;85;21064;-71
2024/04/07 11:10:16;;;;;;;4.28;1.65;;;;;;;18.09;54.79;100945.16;1650875;85;21043;-69
2024/04/07 11:12:45;;;;;;;5.97;2.12;;;;;;;18.11;54.76;100942.16;1650067;85;21108;-69
2024/04/07 11:15:18;;;;;;;7.55;2.00;;;;;;;18.14;54.82;100941.69;1649096;85;21059;-69
2024/04/07 11:17:48;;;;;;;4.00;1.85;;;;;;;18.14;54.89;100944.46;1637521;85;21095;-69
2024/04/07 11:20:19;;;;;;;4.85;2.00;;;;;;;18.14;55.17;100947.23;1650618;85;21044;-67
2024/04/07 11:22:47;;;;;;;4.35;1.98;;;;;;;18.12;54.98;100953.55;1657752;85;21044;-69
2024/04/07 11:25:16;;;;;;;5.65;2.10;;;;;;;18.07;54.71;100954.26;1657685;85;21095;-67
2024/04/07 11:27:46;;;;;;;4.30;2.12;;;;;;;18.05;54.53;100957.80;1657626;85;21068;-67
2024/04/07 11:30:15;;;;;;;5.58;2.02;;;;;;;18.01;54.52;100951.87;1659308;85;21051;-68
2024/04/07 11:32:43;;;;;;;4.62;2.02;;;;;;;18.02;54.69;100956.89;1656674;85;21111;-70
2024/04/07 11:35:14;;;;;;;6.58;2.37;;;;;;;18.01;54.76;100956.58;1649746;85;21104;-69
2024/04/07 11:37:44;;;;;;;5.47;2.10;;;;;;;18.02;55.17;100961.89;1648005;87;21063;-68